Time;durP1;ratioP1;P1;durP2;ratioP2;P2;SDS_P1;SDS_P2;PMS_P1;PMS_P2;Temp;Humidity;BMP_temperature;BMP_pressure;BME280_temperature;BME280_humidity;BME280_pressure;Samples;Min_cycle;Max_cycle;Signal;HPM_P1;HPM_P2
2021/04/28 00:02:10;;;;;;;5.03;2.73;;;7.10;52.00;;;;;;4917759;29;20477;-77
2021/04/28 00:04:37;;;;;;;4.13;3.00;;;7.00;52.00;;;;;;4917670;29;21012;-77
2021/04/28 00:07:04;;;;;;;5.93;2.97;;;7.00;52.20;;;;;;4919479;29;20460;-77
2021/04/28 00:09:33;;;;;;;3.53;2.73;;;6.90;52.20;;;;;;4918824;29;20447;-77
2021/04/28 00:12:02;;;;;;;3.43;3.00;;;6.90;52.40;;;;;;4917689;29;20482;-78
2021/04/28 00:14:30;;;;;;;4.30;2.67;;;6.90;52.60;;;;;;4917513;29;20451;-78
2021/04/28 00:16:57;;;;;;;5.50;2.57;;;6.80;52.60;;;;;;4918124;29;20486;-78
2021/04/28 00:19:26;;;;;;;3.03;2.40;;;6.80;52.80;;;;;;4927668;29;20475;-77
2021/04/28 00:21:53;;;;;;;3.40;3.10;;;6.80;53.00;;;;;;4916755;29;20456;-77
2021/04/28 00:24:20;;;;;;;4.40;3.10;;;6.80;54.20;;;;;;4917421;29;20595;-77
2021/04/28 00:26:48;;;;;;;3.37;2.73;;;6.80;53.90;;;;;;4918541;29;20450;-77
2021/04/28 00:29:16;;;;;;;3.43;3.10;;;6.70;53.80;;;;;;4917307;29;20496;-77
2021/04/28 00:31:43;;;;;;;3.00;2.70;;;6.60;53.80;;;;;;4917347;29;20458;-77
2021/04/28 00:34:10;;;;;;;3.20;2.37;;;6.60;53.90;;;;;;4918444;29;20444;-78
2021/04/28 00:36:38;;;;;;;3.90;3.13;;;6.50;54.00;;;;;;4918997;29;20819;-78
2021/04/28 00:39:05;;;;;;;4.13;2.73;;;6.50;54.10;;;;;;4917181;29;20801;-78
2021/04/28 00:41:32;;;;;;;3.30;2.73;;;6.50;54.20;;;;;;4918295;29;20489;-78
2021/04/28 00:44:04;;;;;;;3.10;2.77;;;6.40;54.30;;;;;;4918177;29;20470;-78
2021/04/28 00:46:31;;;;;;;4.90;3.47;;;6.40;54.50;;;;;;4918438;29;20498;-77
2021/04/28 00:48:58;;;;;;;3.47;3.17;;;6.40;54.70;;;;;;4919290;29;20454;-77
2021/04/28 00:51:26;;;;;;;3.63;3.10;;;6.30;54.70;;;;;;4916924;29;20494;-78
2021/04/28 00:53:54;;;;;;;3.03;2.73;;;6.30;54.90;;;;;;4918140;29;20462;-78
2021/04/28 00:56:21;;;;;;;3.40;2.80;;;6.30;55.00;;;;;;4916981;29;20463;-78
2021/04/28 00:58:48;;;;;;;3.03;2.80;;;6.20;55.10;;;;;;4917067;29;20448;-77
2021/04/28 01:01:17;;;;;;;3.77;3.40;;;6.20;55.30;;;;;;4918005;29;20455;-78
2021/04/28 01:03:48;;;;;;;4.80;3.07;;;6.20;55.40;;;;;;4930381;29;20493;-78
2021/04/28 01:06:16;;;;;;;3.80;3.40;;;6.20;55.50;;;;;;4937133;29;20434;-78
2021/04/28 01:08:43;;;;;;;3.70;2.90;;;6.10;55.60;;;;;;4930893;29;20976;-77
2021/04/28 01:11:12;;;;;;;6.77;3.33;;;6.10;55.70;;;;;;4918390;29;20869;-77
2021/04/28 01:13:55;;;;;;;4.60;3.23;;;6.10;55.90;;;;;;4916690;29;20474;-77
2021/04/28 01:16:23;;;;;;;3.57;2.70;;;6.00;55.90;;;;;;4916663;29;20458;-77
2021/04/28 01:18:54;;;;;;;3.70;3.03;;;6.00;56.10;;;;;;4916479;29;20458;-77
2021/04/28 01:21:21;;;;;;;4.37;3.00;;;6.00;56.30;;;;;;4917475;29;20459;-77
2021/04/28 01:23:50;;;;;;;3.23;2.93;;;5.90;56.40;;;;;;4927212;29;20478;-77
2021/04/28 01:26:20;;;;;;;6.23;3.10;;;5.90;56.50;;;;;;4935356;29;20458;-77
2021/04/28 01:28:49;;;;;;;5.50;3.17;;;5.90;56.60;;;;;;4936405;29;20446;-77
2021/04/28 01:31:17;;;;;;;3.90;3.30;;;5.90;56.70;;;;;;4935370;29;20445;-77
2021/04/28 01:33:47;;;;;;;3.87;3.47;;;5.80;56.70;;;;;;4936301;29;20808;-77
2021/04/28 01:36:18;;;;;;;6.10;3.20;;;5.80;56.80;;;;;;4933064;29;20472;-77
2021/04/28 01:38:50;;;;;;;3.93;3.20;;;5.80;57.00;;;;;;4927503;29;20506;-77
2021/04/28 01:41:21;;;;;;;4.73;3.27;;;5.70;57.00;;;;;;4916698;29;20461;-77
2021/04/28 01:43:49;;;;;;;5.00;3.03;;;5.70;57.10;;;;;;4916719;29;20513;-77
2021/04/28 01:46:17;;;;;;;5.60;3.60;;;5.60;57.20;;;;;;4917076;29;20446;-76
2021/04/28 01:48:46;;;;;;;6.23;3.50;;;5.60;57.40;;;;;;4927427;29;20521;-77
2021/04/28 01:51:14;;;;;;;3.57;3.27;;;5.60;57.60;;;;;;4936526;29;20477;-76
2021/04/28 01:53:43;;;;;;;5.20;3.43;;;5.50;57.70;;;;;;4928135;29;20478;-77
2021/04/28 01:56:12;;;;;;;5.67;3.20;;;5.50;57.90;;;;;;4916267;29;20469;-77
2021/04/28 01:58:56;;;;;;;4.57;3.70;;;5.50;58.10;;;;;;4915153;29;20541;-77
2021/04/28 02:01:56;;;;;;;5.23;3.60;;;5.60;60.00;;;;;;4915924;29;20207;-77
2021/04/28 02:04:28;;;;;;;4.00;3.40;;;5.60;59.60;;;;;;4915987;29;20498;-77
2021/04/28 02:06:58;;;;;;;5.13;3.47;;;5.50;59.50;;;;;;4915849;29;20575;-77
2021/04/28 02:09:26;;;;;;;4.17;3.83;;;5.50;59.90;;;;;;4916157;29;20572;-77
2021/04/28 02:11:55;;;;;;;4.03;3.63;;;5.40;59.80;;;;;;4915914;29;20534;-77
2021/04/28 02:14:27;;;;;;;4.50;3.47;;;5.40;59.80;;;;;;4915845;29;20454;-77
2021/04/28 02:17:03;;;;;;;4.97;3.20;;;5.40;59.80;;;;;;4916040;29;20544;-77
2021/04/28 02:19:37;;;;;;;5.73;3.90;;;5.30;59.80;;;;;;4915973;29;20475;-77
2021/04/28 02:22:06;;;;;;;5.20;3.47;;;5.30;59.80;;;;;;4918871;29;20576;-77
2021/04/28 02:24:52;;;;;;;4.10;3.73;;;5.20;59.80;;;;;;4919211;29;20899;-77
2021/04/28 02:27:29;;;;;;;5.83;3.70;;;5.20;59.90;;;;;;4935042;29;20476;-77
2021/04/28 02:29:57;;;;;;;4.70;3.50;;;5.20;59.90;;;;;;4936028;29;20448;-77
2021/04/28 02:32:26;;;;;;;6.00;4.17;;;5.10;60.60;;;;;;4936304;29;20942;-77
2021/04/28 02:35:26;;;;;;;7.23;4.00;;;5.10;60.10;;;;;;4924540;29;20528;-77
2021/04/28 02:38:18;;;;;;;7.73;3.70;;;5.10;60.10;;;;;;4932906;29;20465;-77
2021/04/28 02:41:05;;;;;;;5.87;3.90;;;5.10;60.20;;;;;;4934309;29;20433;-77
2021/04/28 02:43:37;;;;;;;3.33;3.00;;;5.00;60.20;;;;;;4915397;29;20482;-77
2021/04/28 02:46:11;;;;;;;10.07;4.07;;;5.00;60.40;;;;;;4916868;29;20490;-77
2021/04/28 02:48:43;;;;;;;4.47;3.93;;;5.00;60.40;;;;;;4915553;29;20461;-77
2021/04/28 02:51:30;;;;;;;4.13;3.50;;;4.90;60.40;;;;;;4917269;29;20442;-77
2021/04/28 02:54:00;;;;;;;3.77;3.43;;;4.90;60.50;;;;;;4915685;29;20561;-77
2021/04/28 02:56:28;;;;;;;4.23;3.40;;;4.90;60.60;;;;;;4920945;29;20871;-78
2021/04/28 02:58:56;;;;;;;4.60;4.10;;;4.90;60.80;;;;;;4928833;29;20458;-78
2021/04/28 03:01:26;;;;;;;4.73;3.97;;;4.80;60.80;;;;;;4919046;29;20900;-78
2021/04/28 03:03:54;;;;;;;5.00;3.87;;;4.80;61.00;;;;;;4918637;29;20485;-78
2021/04/28 03:06:36;;;;;;;4.17;3.53;;;4.80;61.10;;;;;;4918983;29;20485;-78
2021/04/28 03:09:05;;;;;;;4.47;3.80;;;4.70;61.10;;;;;;4928281;29;20475;-78
2021/04/28 03:11:33;;;;;;;4.67;4.17;;;4.70;61.20;;;;;;4937710;29;20504;-78
2021/04/28 03:14:13;;;;;;;4.13;3.33;;;4.70;61.30;;;;;;4919724;29;20967;-78
2021/04/28 03:16:41;;;;;;;4.73;4.20;;;4.60;61.30;;;;;;4918733;29;20513;-78
2021/04/28 03:19:09;;;;;;;3.53;3.23;;;4.60;61.40;;;;;;4918940;29;20501;-78
2021/04/28 03:21:43;;;;;;;4.47;3.70;;;4.60;61.60;;;;;;4919919;29;20441;-78
2021/04/28 03:24:12;;;;;;;4.33;3.93;;;4.60;61.70;;;;;;4919729;29;20478;-78
2021/04/28 03:26:42;;;;;;;7.60;3.90;;;4.50;61.70;;;;;;4918656;29;20457;-78
2021/04/28 03:29:10;;;;;;;7.40;4.67;;;4.50;61.90;;;;;;4918756;29;20465;-78
2021/04/28 03:31:40;;;;;;;5.73;4.47;;;4.50;61.90;;;;;;4918583;29;20461;-78
2021/04/28 03:34:09;;;;;;;8.30;4.40;;;4.50;62.00;;;;;;4918694;29;20454;-78
2021/04/28 03:36:37;;;;;;;5.10;3.80;;;4.50;62.10;;;;;;4920065;29;20488;-77
2021/04/28 03:39:17;;;;;;;7.07;3.70;;;4.40;62.10;;;;;;4929076;29;20480;-77
2021/04/28 03:41:44;;;;;;;5.90;4.17;;;4.40;62.20;;;;;;4919488;29;20471;-77
2021/04/28 03:44:11;;;;;;;4.40;3.63;;;4.40;62.40;;;;;;4919321;29;20476;-77
2021/04/28 03:46:40;;;;;;;5.47;3.87;;;4.30;62.30;;;;;;4918381;29;20510;-77
2021/04/28 03:49:08;;;;;;;4.37;3.63;;;4.30;62.50;;;;;;4934539;29;20472;-77
2021/04/28 03:51:36;;;;;;;4.43;3.77;;;4.30;62.50;;;;;;4927455;29;20493;-77
2021/04/28 03:54:16;;;;;;;5.63;3.67;;;4.30;62.60;;;;;;4939326;29;20470;-78
2021/04/28 03:56:47;;;;;;;5.33;4.00;;;4.20;62.60;;;;;;4937742;29;20938;-78
2021/04/28 03:59:16;;;;;;;4.20;3.80;;;4.20;62.70;;;;;;4939608;29;20460;-77
2021/04/28 04:01:46;;;;;;;3.83;3.47;;;4.20;62.80;;;;;;4927730;29;20462;-78
2021/04/28 04:04:14;;;;;;;4.20;3.80;;;4.20;62.90;;;;;;4917911;29;20477;-77
2021/04/28 04:07:01;;;;;;;9.90;4.87;;;4.20;63.00;;;;;;4918946;29;20482;-78
2021/04/28 04:09:47;;;;;;;8.93;4.45;;;4.10;62.90;;;;;;4929736;29;20460;-78
2021/04/28 04:12:16;;;;;;;5.37;4.60;;;4.20;64.50;;;;;;4920948;29;20224;-77
2021/04/28 04:14:49;;;;;;;4.43;4.03;;;4.20;64.30;;;;;;4918043;29;20520;-78
2021/04/28 04:17:19;;;;;;;4.93;4.20;;;4.20;64.20;;;;;;4917926;29;20834;-78
2021/04/28 04:19:52;;;;;;;6.40;4.97;;;4.10;64.10;;;;;;4918217;29;20541;-77
2021/04/28 04:22:46;;;;;;;4.57;4.17;;;4.10;64.00;;;;;;4917868;29;20485;-77
2021/04/28 04:25:32;;;;;;;5.57;4.80;;;4.10;64.00;;;;;;4919225;29;20787;-77
2021/04/28 04:28:00;;;;;;;4.30;3.90;;;4.10;64.00;;;;;;4934568;29;20468;-78
2021/04/28 04:30:59;;;;;;;5.30;4.17;;;4.00;64.00;;;;;;4924286;29;20451;-77
2021/04/28 04:33:53;;;;;;;4.73;3.93;;;4.00;64.00;;;;;;4925207;29;20477;-77
2021/04/28 04:36:38;;;;;;;5.60;4.03;;;4.00;64.00;;;;;;4937844;29;20441;-78
2021/04/28 04:39:24;;;;;;;4.87;4.20;;;4.00;64.00;;;;;;4937750;29;20500;-78
2021/04/28 04:42:11;;;;;;;5.10;3.60;;;4.00;64.10;;;;;;4937654;29;20485;-77
2021/04/28 04:44:49;;;;;;;4.57;4.10;;;4.00;64.10;;;;;;4937462;29;20461;-77
2021/04/28 04:47:16;;;;;;;5.40;4.90;;;4.00;64.10;;;;;;4919517;29;20544;-77
2021/04/28 04:49:44;;;;;;;5.70;4.20;;;4.00;64.10;;;;;;4923063;29;20985;-77
2021/04/28 04:52:12;;;;;;;4.90;4.30;;;4.00;64.90;;;;;;4936383;29;20533;-77
2021/04/28 04:54:39;;;;;;;5.70;4.30;;;4.10;64.40;;;;;;4928461;29;20454;-77
2021/04/28 04:57:07;;;;;;;5.17;4.30;;;4.10;64.40;;;;;;4929184;29;20451;-78
2021/04/28 04:59:34;;;;;;;5.57;4.23;;;4.10;64.50;;;;;;4937428;29;20470;-77
2021/04/28 05:02:01;;;;;;;6.50;4.33;;;4.10;64.50;;;;;;4937832;29;20462;-77
2021/04/28 05:04:29;;;;;;;4.40;4.00;;;4.10;64.50;;;;;;4927542;29;20474;-77
2021/04/28 05:06:57;;;;;;;4.73;4.23;;;4.10;64.50;;;;;;4918815;29;20868;-77
2021/04/28 05:09:24;;;;;;;4.33;3.93;;;4.10;64.60;;;;;;4936968;29;20488;-77
2021/04/28 05:11:52;;;;;;;8.87;4.60;;;4.10;64.70;;;;;;4938971;29;20425;-77
2021/04/28 05:14:19;;;;;;;4.83;3.90;;;4.20;64.80;;;;;;4937893;29;20453;-77
2021/04/28 05:16:48;;;;;;;4.83;4.13;;;4.20;65.50;;;;;;4935856;29;20456;-77
2021/04/28 05:19:15;;;;;;;5.73;4.53;;;4.20;64.80;;;;;;4935544;29;20458;-78
2021/04/28 05:21:43;;;;;;;4.40;3.70;;;4.20;64.90;;;;;;4916942;29;20462;-77
2021/04/28 05:24:12;;;;;;;5.00;3.93;;;4.30;64.90;;;;;;4916321;29;20484;-77
2021/04/28 05:27:08;;;;;;;6.00;4.23;;;4.30;64.90;;;;;;4916669;29;20441;-78
2021/04/28 05:29:35;;;;;;;4.37;3.97;;;4.30;64.90;;;;;;4916343;29;20830;-77
2021/04/28 05:32:02;;;;;;;6.50;4.47;;;4.40;65.00;;;;;;4916341;29;20505;-78
2021/04/28 05:34:30;;;;;;;5.27;4.00;;;4.40;65.10;;;;;;4916446;29;20825;-77
2021/04/28 05:36:57;;;;;;;4.90;4.40;;;4.40;65.00;;;;;;4928260;29;20457;-77
2021/04/28 05:39:25;;;;;;;7.20;4.57;;;4.50;65.20;;;;;;4930198;29;20457;-76
2021/04/28 05:41:53;;;;;;;4.00;3.70;;;4.50;65.20;;;;;;4923887;29;20461;-76
2021/04/28 05:44:20;;;;;;;4.97;4.47;;;4.60;65.30;;;;;;4917320;29;20473;-76
2021/04/28 05:46:47;;;;;;;6.90;4.47;;;4.60;65.20;;;;;;4916606;29;20918;-76
2021/04/28 05:49:14;;;;;;;5.43;4.80;;;4.70;65.30;;;;;;4916380;29;20451;-76
2021/04/28 05:51:42;;;;;;;7.00;4.37;;;4.80;65.40;;;;;;4917227;29;20445;-76
2021/04/28 05:54:09;;;;;;;6.00;4.57;;;4.90;65.50;;;;;;4917310;29;20777;-77
2021/04/28 05:56:38;;;;;;;6.00;4.70;;;5.10;66.20;;;;;;4917358;29;20943;-77
2021/04/28 05:59:05;;;;;;;6.33;4.53;;;5.30;65.60;;;;;;4916048;29;21056;-78
2021/04/28 06:01:32;;;;;;;6.50;4.97;;;5.60;65.60;;;;;;4921288;29;20449;-77
2021/04/28 06:04:00;;;;;;;6.40;4.60;;;5.80;65.60;;;;;;4935045;29;20565;-77
2021/04/28 06:06:27;;;;;;;5.10;4.60;;;6.20;66.30;;;;;;4936842;29;20936;-77
2021/04/28 06:08:55;;;;;;;4.90;3.87;;;6.40;65.50;;;;;;4934994;29;20458;-78
2021/04/28 06:11:22;;;;;;;5.00;4.43;;;6.80;65.50;;;;;;4935075;29;20462;-78
2021/04/28 06:13:50;;;;;;;5.47;4.67;;;7.10;65.40;;;;;;4936251;29;20512;-78
2021/04/28 06:16:18;;;;;;;6.50;4.47;;;7.40;65.00;;;;;;4935213;29;20544;-77
2021/04/28 06:18:46;;;;;;;5.57;4.30;;;7.60;64.60;;;;;;4936518;29;20439;-77
2021/04/28 06:21:13;;;;;;;4.70;3.90;;;7.90;64.30;;;;;;4936449;29;20476;-77
2021/04/28 06:23:40;;;;;;;5.40;4.60;;;8.10;64.00;;;;;;4934863;29;20478;-78
2021/04/28 06:26:07;;;;;;;5.70;4.37;;;8.40;63.80;;;;;;4936599;29;20427;-78
2021/04/28 06:28:35;;;;;;;4.90;4.40;;;8.60;63.50;;;;;;4935017;29;20882;-78
2021/04/28 06:31:03;;;;;;;5.63;4.80;;;8.80;63.10;;;;;;4934902;29;20456;-77
2021/04/28 06:33:30;;;;;;;7.77;4.83;;;9.00;62.90;;;;;;4926584;29;20478;-78
2021/04/28 06:35:57;;;;;;;6.87;5.00;;;9.20;62.80;;;;;;4933426;29;21025;-78
2021/04/28 06:38:24;;;;;;;6.03;5.43;;;9.40;62.50;;;;;;4938398;29;20474;-78
2021/04/28 06:40:52;;;;;;;4.83;4.43;;;9.60;62.20;;;;;;4939006;29;20452;-78
2021/04/28 06:43:19;;;;;;;5.30;4.90;;;9.80;61.90;;;;;;4940042;29;20470;-78
2021/04/28 06:46:06;;;;;;;6.50;5.00;;;9.90;61.40;;;;;;4923711;29;20456;-78
2021/04/28 06:48:33;;;;;;;5.50;4.70;;;10.10;60.20;;;;;;4920987;29;20428;-78
2021/04/28 06:51:01;;;;;;;5.90;5.13;;;10.20;60.00;;;;;;4925377;29;20451;-78
2021/04/28 06:53:28;;;;;;;7.07;4.97;;;10.40;59.80;;;;;;4938503;29;21060;-79
2021/04/28 06:55:56;;;;;;;5.67;5.07;;;10.50;59.60;;;;;;4938417;29;20515;-78
2021/04/28 06:58:23;;;;;;;6.90;5.20;;;10.70;59.50;;;;;;4938307;29;20447;-78
2021/04/28 07:00:50;;;;;;;5.70;5.10;;;10.80;59.20;;;;;;4938225;29;21021;-79
2021/04/28 07:03:18;;;;;;;8.50;5.20;;;11.00;59.10;;;;;;4921525;29;20566;-78
2021/04/28 07:05:46;;;;;;;7.27;5.63;;;11.20;59.00;;;;;;4919995;29;20469;-78
2021/04/28 07:08:13;;;;;;;6.10;5.10;;;11.30;59.00;;;;;;4923587;29;20538;-78
2021/04/28 07:10:41;;;;;;;5.63;5.03;;;11.50;58.90;;;;;;4924231;29;20448;-79
2021/04/28 07:13:08;;;;;;;7.10;5.37;;;11.70;58.80;;;;;;4925368;29;20476;-80
2021/04/28 07:15:35;;;;;;;5.90;4.57;;;11.80;58.50;;;;;;4926735;29;20970;-79
2021/04/28 07:18:03;;;;;;;8.07;6.13;;;11.90;58.10;;;;;;4927831;29;20452;-78
2021/04/28 07:20:32;;;;;;;6.27;5.47;;;12.00;58.00;;;;;;4929686;29;20942;-78
2021/04/28 07:23:00;;;;;;;6.40;5.20;;;12.10;58.00;;;;;;4947204;29;20448;-78
2021/04/28 07:25:27;;;;;;;6.93;5.40;;;12.30;57.80;;;;;;4947534;29;20472;-79
2021/04/28 07:27:54;;;;;;;6.10;5.20;;;12.40;57.60;;;;;;4943210;29;21037;-78
2021/04/28 07:30:22;;;;;;;6.10;5.47;;;12.40;57.40;;;;;;4929576;29;21016;-80
2021/04/28 07:32:49;;;;;;;7.50;5.70;;;12.50;57.20;;;;;;4936472;29;20472;-79
2021/04/28 07:35:18;;;;;;;5.50;4.77;;;12.70;57.20;;;;;;4949189;29;20449;-80
2021/04/28 07:37:47;;;;;;;5.87;5.37;;;12.80;57.00;;;;;;4950309;29;20434;-79
2021/04/28 07:40:15;;;;;;;6.97;5.90;;;12.90;57.00;;;;;;4946201;29;20447;-77
2021/04/28 07:42:42;;;;;;;8.50;5.70;;;13.00;56.90;;;;;;4946360;29;20504;-78
2021/04/28 07:45:11;;;;;;;7.30;6.50;;;13.20;57.00;;;;;;4948652;29;20446;-79
2021/04/28 07:47:38;;;;;;;6.60;5.23;;;13.30;56.80;;;;;;4947389;29;20535;-79
2021/04/28 07:50:14;;;;;;;6.20;5.47;;;13.50;56.50;;;;;;4947235;29;20452;-79
2021/04/28 07:52:42;;;;;;;5.80;5.30;;;13.60;56.40;;;;;;4946870;29;20447;-78
2021/04/28 07:55:11;;;;;;;6.40;5.30;;;13.70;56.30;;;;;;4931238;29;20428;-78
2021/04/28 07:57:38;;;;;;;6.10;5.47;;;13.80;56.20;;;;;;4930072;29;20455;-78
2021/04/28 08:00:09;;;;;;;7.20;6.47;;;14.00;56.10;;;;;;4929424;29;20511;-80
2021/04/28 08:02:39;;;;;;;7.23;5.77;;;14.10;56.00;;;;;;4930743;29;20552;-79
2021/04/28 08:05:08;;;;;;;7.50;5.40;;;14.20;55.80;;;;;;4948343;29;20507;-80
2021/04/28 08:07:35;;;;;;;6.00;5.13;;;14.30;55.60;;;;;;4949755;29;20433;-79
2021/04/28 08:10:04;;;;;;;6.30;5.70;;;14.50;55.70;;;;;;4933645;29;20460;-79
2021/04/28 08:12:32;;;;;;;6.37;5.70;;;14.60;55.80;;;;;;4931851;29;20468;-79
2021/04/28 08:15:00;;;;;;;7.15;5.70;;;14.80;55.70;;;;;;4930153;29;20558;-79
2021/04/28 08:17:28;;;;;;;7.17;6.50;;;15.00;54.30;;;;;;4927554;29;20822;-79
2021/04/28 08:19:56;;;;;;;8.10;5.73;;;15.00;53.90;;;;;;4931632;29;20464;-79
2021/04/28 08:22:23;;;;;;;8.10;6.10;;;15.00;53.90;;;;;;4936653;29;21084;-79
2021/04/28 08:24:50;;;;;;;8.07;6.20;;;15.00;54.00;;;;;;4931212;29;20479;-78
2021/04/28 08:27:17;;;;;;;8.30;5.93;;;15.00;53.80;;;;;;4933175;29;20447;-79
2021/04/28 08:29:45;;;;;;;6.13;5.40;;;15.00;53.80;;;;;;4940650;29;20480;-79
2021/04/28 08:32:13;;;;;;;8.97;6.47;;;15.10;53.80;;;;;;4928304;29;20550;-79
2021/04/28 08:34:40;;;;;;;7.67;6.57;;;15.10;54.20;;;;;;4921332;29;20445;-79
2021/04/28 08:37:08;;;;;;;8.03;6.40;;;15.10;53.50;;;;;;4922850;29;20451;-79
2021/04/28 08:39:35;;;;;;;8.40;6.40;;;15.20;53.50;;;;;;4934896;29;20562;-80
2021/04/28 08:42:02;;;;;;;9.53;6.73;;;15.20;53.30;;;;;;4944493;29;20452;-80
2021/04/28 08:44:31;;;;;;;6.90;5.73;;;15.30;54.00;;;;;;4937906;29;20508;-79
2021/04/28 08:46:59;;;;;;;6.80;6.00;;;15.30;53.10;;;;;;4929420;29;20448;-79
2021/04/28 08:49:27;;;;;;;8.70;6.30;;;15.40;53.10;;;;;;4928156;29;20431;-79
2021/04/28 08:51:54;;;;;;;7.40;6.50;;;15.40;52.70;;;;;;4922848;29;20431;-79
2021/04/28 08:54:34;;;;;;;7.10;6.37;;;15.40;52.50;;;;;;4926691;29;20486;-79
2021/04/28 08:57:02;;;;;;;8.07;6.77;;;15.40;52.60;;;;;;4936816;29;20529;-79
2021/04/28 08:59:30;;;;;;;7.20;6.60;;;15.50;52.60;;;;;;4936482;29;20453;-80
2021/04/28 09:02:12;;;;;;;7.30;6.60;;;15.60;52.50;;;;;;4934575;29;20508;-80
2021/04/28 09:04:39;;;;;;;9.07;7.00;;;15.70;52.40;;;;;;4922426;29;20477;-79
2021/04/28 09:07:06;;;;;;;6.50;5.90;;;15.80;52.30;;;;;;4936231;29;20476;-79
2021/04/28 09:09:33;;;;;;;8.43;7.37;;;15.90;52.20;;;;;;4925188;29;20461;-79
2021/04/28 09:12:02;;;;;;;7.53;6.83;;;16.00;52.20;;;;;;4940471;29;20546;-79
2021/04/28 09:14:32;;;;;;;7.90;6.73;;;16.00;51.90;;;;;;4948434;29;20507;-79
2021/04/28 09:17:02;;;;;;;8.70;7.90;;;16.00;51.50;;;;;;4951860;29;20417;-79
2021/04/28 09:19:54;;;;;;;7.00;6.30;;;16.00;51.30;;;;;;4941631;29;20434;-79
2021/04/28 09:22:40;;;;;;;9.83;7.30;;;16.00;51.50;;;;;;4954346;29;20463;-79
2021/04/28 09:25:42;;;;;;;6.57;5.93;;;16.10;51.50;;;;;;4955236;29;20464;-79
2021/04/28 09:28:31;;;;;;;9.00;7.20;;;16.10;51.00;;;;;;4954925;29;20464;-79
2021/04/28 09:31:16;;;;;;;7.17;6.30;;;16.00;50.90;;;;;;4937855;29;20834;-79
2021/04/28 09:33:53;;;;;;;8.25;7.45;;;16.10;51.00;;;;;;4945287;29;20444;-80
2021/04/28 09:36:32;;;;;;;7.00;6.40;;;16.20;50.70;;;;;;4939651;29;20650;-79
2021/04/28 09:39:05;;;;;;;7.87;7.10;;;16.30;50.80;;;;;;4936514;29;20506;-78
2021/04/28 09:41:38;;;;;;;7.93;6.97;;;16.30;50.90;;;;;;4938243;29;20435;-78
2021/04/28 09:44:29;;;;;;;10.00;7.17;;;16.40;51.70;;;;;;4937143;29;20464;-78
2021/04/28 09:47:01;;;;;;;8.50;7.53;;;16.50;50.90;;;;;;4939651;29;20500;-78
2021/04/28 09:49:48;;;;;;;8.70;7.90;;;16.60;50.90;;;;;;4937162;29;20585;-79
2021/04/28 09:52:17;;;;;;;9.30;8.07;;;16.60;50.40;;;;;;4915968;29;20481;-78
2021/04/28 09:54:45;;;;;;;10.40;8.73;;;16.60;50.40;;;;;;4928898;29;20881;-79
2021/04/28 09:57:16;;;;;;;8.97;7.97;;;16.60;50.70;;;;;;4938013;29;20472;-79
2021/04/28 09:59:45;;;;;;;8.17;7.47;;;16.70;50.90;;;;;;4938705;29;20440;-78
2021/04/28 10:02:14;;;;;;;8.00;7.27;;;16.80;50.80;;;;;;4938827;29;20468;-78
2021/04/28 10:04:43;;;;;;;12.57;9.10;;;16.80;50.60;;;;;;4949038;29;20483;-78
2021/04/28 10:07:10;;;;;;;9.20;8.10;;;16.80;50.50;;;;;;4937321;29;20458;-79
2021/04/28 10:09:40;;;;;;;9.17;8.27;;;16.90;50.40;;;;;;4938291;29;20885;-78
2021/04/28 10:12:08;;;;;;;9.23;8.33;;;16.90;50.80;;;;;;4948874;23;20586;-79
2021/04/28 10:14:37;;;;;;;8.93;8.03;;;16.90;50.20;;;;;;4936352;29;20437;-82
2021/04/28 10:17:07;;;;;;;9.13;8.23;;;16.90;50.20;;;;;;4924861;29;20484;-80
2021/04/28 10:19:36;;;;;;;9.33;8.43;;;17.00;50.50;;;;;;4926484;29;20459;-80
2021/04/28 10:22:05;;;;;;;9.60;8.70;;;17.00;50.30;;;;;;4925584;29;20476;-81
2021/04/28 10:24:33;;;;;;;10.73;8.27;;;17.10;50.50;;;;;;4922189;29;20487;-82
2021/04/28 10:27:00;;;;;;;8.80;7.90;;;17.10;50.50;;;;;;4923429;29;20456;-83
2021/04/28 10:29:32;;;;;;;9.83;8.97;;;17.20;50.30;;;;;;4922205;29;20453;-82
2021/04/28 10:32:00;;;;;;;9.57;8.67;;;17.20;50.10;;;;;;4923474;29;20476;-81
2021/04/28 10:34:32;;;;;;;11.57;9.03;;;17.20;50.10;;;;;;4920530;29;21039;-81
2021/04/28 10:37:00;;;;;;;9.80;8.80;;;17.30;50.30;;;;;;4937828;29;20479;-81
2021/04/28 10:39:33;;;;;;;9.40;8.50;;;17.40;50.20;;;;;;4942671;29;20535;-82
2021/04/28 10:42:01;;;;;;;10.03;9.00;;;17.50;49.90;;;;;;4939788;29;20471;-82
2021/04/28 10:44:40;;;;;;;10.70;9.70;;;17.50;49.70;;;;;;4941440;29;20472;-81
2021/04/28 10:47:39;;;;;;;10.13;9.20;;;17.60;49.60;;;;;;4940842;29;20449;-81
2021/04/28 10:50:21;;;;;;;10.30;9.27;;;17.70;49.40;;;;;;4909808;29;20462;-80
2021/04/28 10:53:00;;;;;;;10.63;9.63;;;17.90;48.10;;;;;;4928227;29;20239;-81
2021/04/28 10:55:51;;;;;;;10.60;9.50;;;18.00;48.60;;;;;;4940823;29;20491;-82
2021/04/28 10:58:41;;;;;;;11.60;9.63;;;18.10;49.00;;;;;;4947297;29;20471;-81
2021/04/28 11:01:23;;;;;;;13.18;10.45;;;18.20;49.00;;;;;;4939377;29;20499;-80
2021/04/28 11:03:53;;;;;;;12.13;10.27;;;18.40;46.70;;;;;;4924700;29;20225;-80
2021/04/28 11:06:34;;;;;;;10.70;9.67;;;18.40;46.90;;;;;;4926189;29;20504;-81
2021/04/28 11:09:13;;;;;;;11.57;10.40;;;18.30;46.90;;;;;;4925242;29;20445;-80
2021/04/28 11:11:44;;;;;;;10.60;9.67;;;18.30;47.10;;;;;;4928070;29;20463;-81
2021/04/28 11:14:30;;;;;;;11.47;10.40;;;18.20;47.10;;;;;;4925394;29;20461;-80
2021/04/28 11:17:21;;;;;;;10.37;9.47;;;18.10;47.20;;;;;;4931197;29;20815;-80
2021/04/28 11:19:51;;;;;;;11.30;10.23;;;18.00;47.30;;;;;;4946431;29;20460;-81
2021/04/28 11:22:24;;;;;;;13.57;11.23;;;18.00;47.60;;;;;;4933555;29;20492;-80
2021/04/28 11:25:17;;;;;;;10.93;9.90;;;18.10;47.40;;;;;;4944821;29;20809;-81
2021/04/28 11:27:57;;;;;;;11.23;9.13;;;18.10;47.20;;;;;;4946652;29;20463;-81
2021/04/28 11:30:27;;;;;;;11.50;10.50;;;18.10;47.40;;;;;;4956343;29;20437;-82
2021/04/28 11:33:12;;;;;;;11.20;9.60;;;18.10;47.30;;;;;;4949830;29;21027;-80
2021/04/28 11:35:41;;;;;;;10.97;9.97;;;18.10;47.30;;;;;;4946897;29;20818;-80
2021/04/28 11:38:11;;;;;;;11.63;10.53;;;18.10;47.50;;;;;;4945556;29;20789;-80
2021/04/28 11:40:49;;;;;;;11.37;9.77;;;18.20;47.60;;;;;;4946637;29;20523;-80
2021/04/28 11:43:19;;;;;;;12.93;10.60;;;18.30;47.60;;;;;;4946090;29;20527;-80
2021/04/28 11:45:47;;;;;;;11.97;10.87;;;18.30;47.80;;;;;;4944502;29;20504;-80
2021/04/28 11:48:19;;;;;;;11.17;10.07;;;18.40;47.80;;;;;;4935848;29;20638;-80
2021/04/28 11:50:48;;;;;;;10.90;9.90;;;18.50;47.80;;;;;;4941856;29;20463;-79
2021/04/28 11:53:15;;;;;;;11.73;10.53;;;18.50;47.80;;;;;;4934046;29;20476;-80
2021/04/28 11:55:43;;;;;;;13.00;10.50;;;18.50;47.80;;;;;;4934059;29;20453;-80
2021/04/28 11:58:22;;;;;;;11.90;10.70;;;18.60;48.10;;;;;;4932768;29;20444;-81
2021/04/28 12:00:50;;;;;;;12.40;11.20;;;18.60;48.00;;;;;;4934240;29;20550;-82
2021/04/28 12:03:17;;;;;;;13.50;11.43;;;18.70;47.80;;;;;;4935805;29;20472;-81
2021/04/28 12:05:44;;;;;;;11.43;10.23;;;18.80;47.90;;;;;;4925996;28;20551;-81
2021/04/28 12:08:16;;;;;;;11.10;10.10;;;18.80;47.90;;;;;;4933950;29;20473;-81
2021/04/28 12:10:50;;;;;;;12.20;10.80;;;18.80;47.90;;;;;;4923288;29;20460;-81
2021/04/28 12:13:17;;;;;;;11.13;9.83;;;18.90;48.00;;;;;;4932134;29;20468;-81
2021/04/28 12:15:53;;;;;;;11.23;10.17;;;18.90;47.90;;;;;;4946919;29;20470;-80
2021/04/28 12:18:30;;;;;;;12.83;10.67;;;18.90;47.60;;;;;;4953154;29;20459;-81
2021/04/28 12:20:58;;;;;;;11.93;10.40;;;18.90;47.60;;;;;;4950066;29;20449;-81
2021/04/28 12:23:26;;;;;;;13.30;11.10;;;18.80;47.50;;;;;;4926340;29;20480;-81
2021/04/28 12:25:54;;;;;;;11.63;10.40;;;18.80;47.50;;;;;;4938542;29;20477;-80
2021/04/28 12:28:21;;;;;;;11.23;10.13;;;18.80;47.70;;;;;;4937203;29;20416;-80
2021/04/28 12:30:49;;;;;;;11.10;9.10;;;18.80;47.80;;;;;;4937061;29;20571;-79
2021/04/28 12:33:18;;;;;;;12.00;10.80;;;18.90;47.90;;;;;;4953366;29;20487;-78
2021/04/28 12:35:45;;;;;;;11.67;10.53;;;18.90;47.70;;;;;;4947966;29;20452;-80
2021/04/28 12:38:14;;;;;;;12.23;11.03;;;19.00;47.70;;;;;;4925670;29;20804;-80
2021/04/28 12:40:45;;;;;;;11.63;10.60;;;18.90;47.30;;;;;;4928185;29;20457;-79
2021/04/28 12:43:14;;;;;;;12.10;10.90;;;18.90;47.40;;;;;;4953581;29;20507;-79
2021/04/28 12:46:02;;;;;;;11.20;10.20;;;18.80;47.30;;;;;;4950488;29;20475;-79
2021/04/28 12:48:50;;;;;;;12.57;11.37;;;18.70;47.10;;;;;;4947954;29;20475;-79
2021/04/28 12:51:18;;;;;;;12.57;9.77;;;18.70;47.30;;;;;;4951293;29;20455;-79
2021/04/28 12:53:45;;;;;;;12.40;10.73;;;18.60;47.30;;;;;;4946602;29;20463;-79
2021/04/28 12:56:12;;;;;;;12.90;10.53;;;18.60;47.30;;;;;;4952287;29;20549;-79
2021/04/28 12:58:45;;;;;;;11.70;10.60;;;18.60;47.50;;;;;;4953209;29;20436;-79
2021/04/28 13:01:17;;;;;;;11.73;10.60;;;18.60;47.70;;;;;;4952258;29;20470;-81
2021/04/28 13:03:45;;;;;;;10.40;9.40;;;18.70;47.70;;;;;;4948917;29;20464;-78
2021/04/28 13:06:19;;;;;;;11.90;10.33;;;18.70;47.50;;;;;;4950258;29;21056;-79
2021/04/28 13:08:47;;;;;;;11.80;10.20;;;18.70;47.30;;;;;;4945234;29;20475;-79
2021/04/28 13:11:19;;;;;;;13.07;10.87;;;18.70;47.20;;;;;;4946800;29;20467;-79